X  Schließen METAR Luftfahrt Wetterdaten        LYNI Nis Airport
Temperatur
7°C Temperatur
6°C Taupunkt
93% Feuchtigkeit



Wind
12 MPS
19 KM/S
5 M/S
10 KTS



320°
NW
Aktuelle Wetterlage

Mostly Cloudy with Light Rain Meistens bewölkt , Leicht Regen
Luftdruck 1011 (hPa) - 29.87 (inHg)
Sichtweite 6 (Meile) - 10 (Km)
Flughafen
Flughafen Code LYNI

Position : Nis Airport
Entfernung: 63 (mi)

Metar:
METAR LYNI 211330Z 32010KT 9999 -RA SCT013 BKN037 07/06 Q1011 NOSIG

Zeit: 21-04-2024 15:30 CEST